AUA36P LOWW-LFPG
Flight info
| Callsign | AUA36P |
|---|---|
| Flight time | 1h 41m |
| Altitude | 34000 |
| Route | MEDIX DCT RENKA L610 MAMOR DCT ASPAT DCT VIBOM DCT BETEX DCT IDOSA UN857 TOLVU DCT RAPOR DCT VEDUS |
| Aircraft | A20N/M-SDE2E3FGHIJ1RWXY/LB1 |
Departure
| Time | 2026-05-08 18:34 |
|---|---|
| Airport | Vienna International Airport (LOWW) |
Arrival
| Time | 2026-05-08 20:15 |
|---|---|
| Airport | Charles de Gaulle International Airport (LFPG) |
| Time | Latitude | Longitude | Altitude | Speed | Heading |
|---|---|---|---|---|---|
| 2026-05-08 17:59 | 48.11864 | 16.56881 | 600 ft | 0 kts | 200° |
| 2026-05-08 18:22 | 48.11870 | 16.56884 | 600 ft | 2 kts | 200° |
| 2026-05-08 18:22 | 48.11889 | 16.56894 | 600 ft | 3 kts | 196° |
| 2026-05-08 18:23 | 48.11908 | 16.56901 | 599 ft | 3 kts | 185° |
| 2026-05-08 18:23 | 48.11927 | 16.56901 | 599 ft | 3 kts | 154° |
| 2026-05-08 18:23 | 48.11938 | 16.56890 | 598 ft | 1 kts | 116° |
| 2026-05-08 18:23 | 48.11938 | 16.56889 | 598 ft | 1 kts | 116° |
| 2026-05-08 18:26 | 48.11937 | 16.56892 | 598 ft | 1 kts | 116° |
| 2026-05-08 18:26 | 48.11927 | 16.56924 | 599 ft | 6 kts | 116° |
| 2026-05-08 18:27 | 48.11899 | 16.57006 | 600 ft | 12 kts | 116° |
| 2026-05-08 18:27 | 48.11873 | 16.57088 | 600 ft | 14 kts | 116° |
| 2026-05-08 18:27 | 48.11845 | 16.57252 | 602 ft | 12 kts | 114° |
| 2026-05-08 18:27 | 48.11808 | 16.57375 | 602 ft | 13 kts | 95° |
| 2026-05-08 18:28 | 48.11774 | 16.57489 | 603 ft | 12 kts | 157° |
| 2026-05-08 18:28 | 48.11697 | 16.57517 | 615 ft | 12 kts | 165° |
| 2026-05-08 18:28 | 48.11584 | 16.57563 | 617 ft | 22 kts | 163° |
| 2026-05-08 18:28 | 48.11427 | 16.57632 | 616 ft | 24 kts | 164° |
| 2026-05-08 18:29 | 48.11256 | 16.57704 | 608 ft | 26 kts | 164° |
| 2026-05-08 18:29 | 48.11089 | 16.57777 | 619 ft | 25 kts | 163° |
| 2026-05-08 18:29 | 48.10925 | 16.57844 | 627 ft | 24 kts | 164° |
| 2026-05-08 18:29 | 48.10757 | 16.57915 | 617 ft | 26 kts | 164° |
| 2026-05-08 18:30 | 48.10585 | 16.57989 | 622 ft | 27 kts | 163° |
| 2026-05-08 18:30 | 48.10404 | 16.58065 | 624 ft | 27 kts | 165° |
| 2026-05-08 18:30 | 48.10230 | 16.58139 | 623 ft | 22 kts | 163° |
| 2026-05-08 18:30 | 48.10080 | 16.58202 | 626 ft | 23 kts | 164° |
| 2026-05-08 18:31 | 48.09923 | 16.58267 | 629 ft | 23 kts | 164° |
| 2026-05-08 18:31 | 48.09770 | 16.58333 | 620 ft | 23 kts | 163° |
| 2026-05-08 18:31 | 48.09638 | 16.58428 | 624 ft | 19 kts | 117° |
| 2026-05-08 18:31 | 48.09693 | 16.58562 | 628 ft | 17 kts | 8° |
| 2026-05-08 18:32 | 48.09812 | 16.58587 | 624 ft | 18 kts | 11° |
| 2026-05-08 18:32 | 48.09941 | 16.58615 | 619 ft | 20 kts | 5° |
| 2026-05-08 18:32 | 48.10085 | 16.58616 | 618 ft | 17 kts | 350° |
| 2026-05-08 18:32 | 48.10129 | 16.58599 | 620 ft | 1 kts | 344° |
| 2026-05-08 18:33 | 48.10203 | 16.58567 | 616 ft | 38 kts | 344° |
| 2026-05-08 18:33 | 48.10700 | 16.58361 | 619 ft | 106 kts | 344° |
| 2026-05-08 18:33 | 48.11591 | 16.57982 | 617 ft | 157 kts | 345° |
| 2026-05-08 18:33 | 48.12717 | 16.57560 | 996 ft | 169 kts | 348° |
| 2026-05-08 18:34 | 48.13863 | 16.57015 | 1596 ft | 177 kts | 337° |
| 2026-05-08 18:34 | 48.14923 | 16.56055 | 2313 ft | 179 kts | 322° |
| 2026-05-08 18:34 | 48.15733 | 16.54618 | 2923 ft | 188 kts | 297° |
| 2026-05-08 18:34 | 48.15901 | 16.52643 | 3429 ft | 204 kts | 256° |
| 2026-05-08 18:35 | 48.15102 | 16.50768 | 3806 ft | 230 kts | 225° |
| 2026-05-08 18:35 | 48.13739 | 16.49295 | 4238 ft | 253 kts | 211° |
| 2026-05-08 18:35 | 48.12231 | 16.47871 | 5044 ft | 258 kts | 219° |
| 2026-05-08 18:35 | 48.11150 | 16.45791 | 5945 ft | 258 kts | 256° |
| 2026-05-08 18:36 | 48.11353 | 16.43192 | 6881 ft | 253 kts | 290° |
| 2026-05-08 18:36 | 48.11956 | 16.40650 | 7524 ft | 268 kts | 287° |
| 2026-05-08 18:36 | 48.12454 | 16.37904 | 8246 ft | 275 kts | 282° |
| 2026-05-08 18:36 | 48.12839 | 16.35110 | 9229 ft | 274 kts | 280° |
| 2026-05-08 18:37 | 48.13163 | 16.32288 | 10152 ft | 276 kts | 278° |
| 2026-05-08 18:37 | 48.13470 | 16.29374 | 10603 ft | 294 kts | 278° |
| 2026-05-08 18:37 | 48.13792 | 16.26229 | 10858 ft | 317 kts | 278° |
| 2026-05-08 18:37 | 48.14133 | 16.22889 | 11358 ft | 329 kts | 278° |
| 2026-05-08 18:38 | 48.14570 | 16.19503 | 12119 ft | 334 kts | 284° |
| 2026-05-08 18:38 | 48.15221 | 16.16143 | 12878 ft | 338 kts | 285° |
| 2026-05-08 18:38 | 48.15881 | 16.12740 | 13641 ft | 342 kts | 285° |
| 2026-05-08 18:38 | 48.16545 | 16.09293 | 14333 ft | 346 kts | 285° |
| 2026-05-08 18:39 | 48.17212 | 16.05814 | 15039 ft | 349 kts | 285° |
| 2026-05-08 18:39 | 48.17882 | 16.02306 | 15721 ft | 352 kts | 285° |
| 2026-05-08 18:39 | 48.18556 | 15.98778 | 16496 ft | 352 kts | 285° |
| 2026-05-08 18:39 | 48.19231 | 15.95232 | 17170 ft | 356 kts | 285° |
| 2026-05-08 18:40 | 48.19913 | 15.91638 | 17804 ft | 360 kts | 285° |
| 2026-05-08 18:40 | 48.20600 | 15.88012 | 18449 ft | 364 kts | 285° |
| 2026-05-08 18:40 | 48.21292 | 15.84357 | 19024 ft | 366 kts | 285° |
| 2026-05-08 18:40 | 48.21979 | 15.80720 | 19597 ft | 369 kts | 284° |
| 2026-05-08 18:41 | 48.22680 | 15.77004 | 20170 ft | 371 kts | 284° |
| 2026-05-08 18:41 | 48.23384 | 15.73262 | 20732 ft | 374 kts | 284° |
| 2026-05-08 18:41 | 48.24092 | 15.69492 | 21296 ft | 377 kts | 284° |
| 2026-05-08 18:41 | 48.24805 | 15.65691 | 21858 ft | 380 kts | 284° |
| 2026-05-08 18:42 | 48.25521 | 15.61865 | 22402 ft | 383 kts | 284° |
| 2026-05-08 18:42 | 48.26242 | 15.58005 | 23001 ft | 384 kts | 284° |
| 2026-05-08 18:42 | 48.26963 | 15.54136 | 23558 ft | 387 kts | 284° |
| 2026-05-08 18:42 | 48.27688 | 15.50233 | 24014 ft | 390 kts | 283° |
| 2026-05-08 18:43 | 48.28418 | 15.46302 | 24485 ft | 391 kts | 283° |
| 2026-05-08 18:43 | 48.29148 | 15.42359 | 24939 ft | 393 kts | 283° |
| 2026-05-08 18:43 | 48.29869 | 15.38387 | 25381 ft | 395 kts | 282° |
| 2026-05-08 18:43 | 48.30524 | 15.34375 | 25824 ft | 396 kts | 281° |
| 2026-05-08 18:44 | 48.31156 | 15.30338 | 26245 ft | 399 kts | 281° |
| 2026-05-08 18:44 | 48.31792 | 15.26274 | 26666 ft | 401 kts | 281° |
| 2026-05-08 18:44 | 48.32437 | 15.22189 | 27081 ft | 403 kts | 281° |
| 2026-05-08 18:44 | 48.33088 | 15.18087 | 27531 ft | 403 kts | 281° |
| 2026-05-08 18:45 | 48.33742 | 15.13985 | 27982 ft | 404 kts | 281° |
| 2026-05-08 18:45 | 48.34397 | 15.09868 | 28326 ft | 407 kts | 281° |
| 2026-05-08 18:45 | 48.35055 | 15.05718 | 28691 ft | 409 kts | 280° |
| 2026-05-08 18:45 | 48.35714 | 15.01557 | 29055 ft | 410 kts | 280° |
| 2026-05-08 18:46 | 48.36374 | 14.97375 | 29401 ft | 412 kts | 280° |
| 2026-05-08 18:46 | 48.37036 | 14.93177 | 29739 ft | 414 kts | 280° |
| 2026-05-08 18:46 | 48.37698 | 14.88957 | 30079 ft | 415 kts | 280° |
| 2026-05-08 18:46 | 48.38363 | 14.84714 | 30373 ft | 417 kts | 280° |
| 2026-05-08 18:47 | 48.39029 | 14.80452 | 30656 ft | 419 kts | 279° |
| 2026-05-08 18:47 | 48.39695 | 14.76178 | 31028 ft | 419 kts | 279° |
| 2026-05-08 18:47 | 48.40360 | 14.71909 | 31384 ft | 419 kts | 279° |
| 2026-05-08 18:47 | 48.41023 | 14.67638 | 31723 ft | 419 kts | 279° |
| 2026-05-08 18:48 | 48.41684 | 14.63367 | 32099 ft | 418 kts | 279° |
| 2026-05-08 18:48 | 48.42343 | 14.59100 | 32437 ft | 418 kts | 278° |
| 2026-05-08 18:48 | 48.42999 | 14.54838 | 32786 ft | 417 kts | 278° |
| 2026-05-08 18:48 | 48.43652 | 14.50584 | 33122 ft | 417 kts | 278° |
| 2026-05-08 18:49 | 48.44302 | 14.46337 | 33448 ft | 416 kts | 278° |
| 2026-05-08 18:49 | 48.44950 | 14.42090 | 33777 ft | 415 kts | 277° |
| 2026-05-08 18:49 | 48.45596 | 14.37850 | 34025 ft | 415 kts | 277° |
| 2026-05-08 18:49 | 48.46229 | 14.33676 | 34053 ft | 413 kts | 277° |
| 2026-05-08 18:50 | 48.47502 | 14.25254 | 34069 ft | 412 kts | 277° |
| 2026-05-08 18:50 | 48.48769 | 14.16820 | 34066 ft | 413 kts | 277° |
| 2026-05-08 18:51 | 48.50031 | 14.08383 | 34059 ft | 413 kts | 277° |
| 2026-05-08 18:51 | 48.51286 | 13.99940 | 34072 ft | 412 kts | 277° |
| 2026-05-08 18:52 | 48.52532 | 13.91496 | 34078 ft | 412 kts | 277° |
| 2026-05-08 18:52 | 48.53772 | 13.83056 | 34067 ft | 412 kts | 277° |
| 2026-05-08 18:53 | 48.55007 | 13.74615 | 34069 ft | 412 kts | 277° |
| 2026-05-08 18:53 | 48.56235 | 13.66171 | 34063 ft | 412 kts | 277° |
| 2026-05-08 18:54 | 48.57457 | 13.57726 | 34072 ft | 412 kts | 277° |
| 2026-05-08 18:54 | 48.58790 | 13.49293 | 34077 ft | 416 kts | 283° |
| 2026-05-08 18:55 | 48.61752 | 13.37007 | 34071 ft | 417 kts | 285° |
| 2026-05-08 18:56 | 48.63731 | 13.28773 | 34071 ft | 417 kts | 285° |
| 2026-05-08 18:56 | 48.65701 | 13.20539 | 34075 ft | 417 kts | 285° |
| 2026-05-08 18:57 | 48.67665 | 13.12293 | 34076 ft | 417 kts | 285° |
| 2026-05-08 18:57 | 48.69625 | 13.04023 | 34059 ft | 417 kts | 285° |
| 2026-05-08 18:58 | 48.71577 | 12.95746 | 34060 ft | 417 kts | 285° |
| 2026-05-08 18:58 | 48.73523 | 12.87459 | 34062 ft | 418 kts | 285° |
| 2026-05-08 18:59 | 48.75466 | 12.79160 | 34065 ft | 418 kts | 285° |
| 2026-05-08 18:59 | 48.77405 | 12.70847 | 34069 ft | 419 kts | 285° |
| 2026-05-08 19:00 | 48.79014 | 12.63923 | 34076 ft | 419 kts | 285° |
| 2026-05-08 19:00 | 48.81270 | 12.54167 | 34084 ft | 420 kts | 285° |
| 2026-05-08 19:01 | 48.83197 | 12.45802 | 34084 ft | 420 kts | 285° |
| 2026-05-08 19:01 | 48.85120 | 12.37421 | 34087 ft | 421 kts | 285° |
| 2026-05-08 19:02 | 48.87036 | 12.29020 | 34072 ft | 422 kts | 286° |
| 2026-05-08 19:02 | 48.88953 | 12.20581 | 34072 ft | 423 kts | 285° |
| 2026-05-08 19:03 | 48.90476 | 12.13519 | 34076 ft | 423 kts | 285° |
| 2026-05-08 19:03 | 48.92280 | 12.04999 | 34085 ft | 424 kts | 285° |
| 2026-05-08 19:04 | 48.94385 | 11.95081 | 34093 ft | 425 kts | 285° |
| 2026-05-08 19:04 | 48.95905 | 11.87901 | 34083 ft | 426 kts | 285° |
| 2026-05-08 19:05 | 48.97719 | 11.79318 | 34085 ft | 426 kts | 285° |
| 2026-05-08 19:05 | 48.99529 | 11.70711 | 34086 ft | 427 kts | 285° |
| 2026-05-08 19:06 | 49.01334 | 11.62091 | 34103 ft | 428 kts | 285° |
| 2026-05-08 19:06 | 49.03135 | 11.53448 | 34102 ft | 428 kts | 285° |
| 2026-05-08 19:07 | 49.04931 | 11.44792 | 34085 ft | 429 kts | 285° |
| 2026-05-08 19:07 | 49.06724 | 11.36119 | 34088 ft | 429 kts | 285° |
| 2026-05-08 19:08 | 49.08513 | 11.27425 | 34083 ft | 430 kts | 285° |
| 2026-05-08 19:08 | 49.10298 | 11.18715 | 34089 ft | 430 kts | 285° |
| 2026-05-08 19:09 | 49.12076 | 11.09996 | 34100 ft | 430 kts | 285° |
| 2026-05-08 19:09 | 49.13848 | 11.01264 | 34122 ft | 431 kts | 285° |
| 2026-05-08 19:10 | 49.15615 | 10.92525 | 34126 ft | 431 kts | 285° |
| 2026-05-08 19:10 | 49.17364 | 10.83839 | 34151 ft | 431 kts | 285° |
| 2026-05-08 19:11 | 49.19117 | 10.75091 | 34152 ft | 430 kts | 285° |
| 2026-05-08 19:11 | 49.20805 | 10.66253 | 34149 ft | 429 kts | 284° |
| 2026-05-08 19:12 | 49.22332 | 10.57527 | 34113 ft | 427 kts | 284° |
| 2026-05-08 19:12 | 49.23880 | 10.48736 | 34113 ft | 428 kts | 284° |
| 2026-05-08 19:13 | 49.25434 | 10.39946 | 34117 ft | 428 kts | 284° |
| 2026-05-08 19:13 | 49.26984 | 10.31152 | 34113 ft | 428 kts | 284° |
| 2026-05-08 19:14 | 49.28528 | 10.22351 | 34121 ft | 428 kts | 284° |
| 2026-05-08 19:14 | 49.30067 | 10.13531 | 34112 ft | 428 kts | 283° |
| 2026-05-08 19:15 | 49.31314 | 10.04609 | 34098 ft | 428 kts | 279° |
| 2026-05-08 19:15 | 49.32395 | 9.95630 | 34102 ft | 429 kts | 279° |
| 2026-05-08 19:16 | 49.33481 | 9.86640 | 34105 ft | 429 kts | 279° |
| 2026-05-08 19:16 | 49.34561 | 9.77640 | 34102 ft | 430 kts | 279° |
| 2026-05-08 19:17 | 49.35632 | 9.68628 | 34103 ft | 430 kts | 279° |
| 2026-05-08 19:17 | 49.36696 | 9.59604 | 34101 ft | 430 kts | 279° |
| 2026-05-08 19:18 | 49.37753 | 9.50573 | 34100 ft | 430 kts | 279° |
| 2026-05-08 19:18 | 49.38804 | 9.41535 | 34097 ft | 430 kts | 279° |
| 2026-05-08 19:19 | 49.39847 | 9.32496 | 34085 ft | 430 kts | 279° |
| 2026-05-08 19:19 | 49.40886 | 9.23436 | 34084 ft | 431 kts | 279° |
| 2026-05-08 19:20 | 49.41916 | 9.14379 | 34086 ft | 431 kts | 279° |
| 2026-05-08 19:20 | 49.42940 | 9.05310 | 34085 ft | 431 kts | 279° |
| 2026-05-08 19:21 | 49.43959 | 8.96225 | 34085 ft | 431 kts | 279° |
| 2026-05-08 19:21 | 49.44964 | 8.87194 | 34078 ft | 432 kts | 279° |
| 2026-05-08 19:22 | 49.45969 | 8.78094 | 34077 ft | 432 kts | 278° |
| 2026-05-08 19:22 | 49.46967 | 8.68989 | 34075 ft | 432 kts | 278° |
| 2026-05-08 19:23 | 49.47958 | 8.59877 | 34075 ft | 432 kts | 278° |
| 2026-05-08 19:23 | 49.48942 | 8.50762 | 34077 ft | 432 kts | 278° |
| 2026-05-08 19:24 | 49.49920 | 8.41635 | 34088 ft | 432 kts | 278° |
| 2026-05-08 19:24 | 49.50889 | 8.32514 | 34084 ft | 432 kts | 278° |
| 2026-05-08 19:25 | 49.51852 | 8.23383 | 34085 ft | 432 kts | 278° |
| 2026-05-08 19:25 | 49.52807 | 8.14258 | 34082 ft | 432 kts | 278° |
| 2026-05-08 19:26 | 49.53755 | 8.05127 | 34084 ft | 432 kts | 278° |
| 2026-05-08 19:26 | 49.54696 | 7.95993 | 34079 ft | 432 kts | 278° |
| 2026-05-08 19:27 | 49.55630 | 7.86845 | 34075 ft | 432 kts | 278° |
| 2026-05-08 19:27 | 49.56557 | 7.77699 | 34079 ft | 432 kts | 278° |
| 2026-05-08 19:28 | 49.57476 | 7.68555 | 34077 ft | 432 kts | 278° |
| 2026-05-08 19:28 | 49.58388 | 7.59398 | 34075 ft | 432 kts | 278° |
| 2026-05-08 19:29 | 49.59294 | 7.50236 | 34079 ft | 432 kts | 278° |
| 2026-05-08 19:29 | 49.60193 | 7.41069 | 34091 ft | 433 kts | 278° |
| 2026-05-08 19:30 | 49.61084 | 7.31901 | 34086 ft | 433 kts | 278° |
| 2026-05-08 19:30 | 49.61969 | 7.22722 | 34092 ft | 433 kts | 278° |
| 2026-05-08 19:31 | 49.62846 | 7.13535 | 34089 ft | 433 kts | 278° |
| 2026-05-08 19:31 | 49.63717 | 7.04339 | 34094 ft | 433 kts | 278° |
| 2026-05-08 19:32 | 49.64582 | 6.95136 | 34087 ft | 434 kts | 278° |
| 2026-05-08 19:32 | 49.65440 | 6.85913 | 34096 ft | 434 kts | 278° |
| 2026-05-08 19:33 | 49.66291 | 6.76689 | 34098 ft | 434 kts | 278° |
| 2026-05-08 19:33 | 49.67127 | 6.67520 | 34095 ft | 434 kts | 278° |
| 2026-05-08 19:34 | 49.67965 | 6.58286 | 34091 ft | 434 kts | 278° |
| 2026-05-08 19:34 | 49.68794 | 6.49048 | 34106 ft | 434 kts | 278° |
| 2026-05-08 19:35 | 49.69616 | 6.39811 | 34105 ft | 434 kts | 278° |
| 2026-05-08 19:35 | 49.70429 | 6.30579 | 34103 ft | 434 kts | 278° |
| 2026-05-08 19:36 | 49.71231 | 6.21356 | 34113 ft | 433 kts | 279° |
| 2026-05-08 19:36 | 49.72029 | 6.12139 | 34108 ft | 432 kts | 278° |
| 2026-05-08 19:37 | 49.72818 | 6.02932 | 34097 ft | 432 kts | 278° |
| 2026-05-08 19:37 | 49.73564 | 5.93906 | 34089 ft | 410 kts | 276° |
| 2026-05-08 19:38 | 49.73318 | 5.84957 | 34088 ft | 426 kts | 263° |
| 2026-05-08 19:38 | 49.71608 | 5.76006 | 34087 ft | 440 kts | 253° |
| 2026-05-08 19:39 | 49.69543 | 5.67143 | 34084 ft | 438 kts | 253° |
| 2026-05-08 19:39 | 49.67483 | 5.58284 | 34083 ft | 438 kts | 253° |
| 2026-05-08 19:40 | 49.65410 | 5.49434 | 34083 ft | 439 kts | 253° |
| 2026-05-08 19:40 | 49.63326 | 5.40586 | 33949 ft | 439 kts | 253° |
| 2026-05-08 19:40 | 49.62280 | 5.36161 | 33657 ft | 439 kts | 254° |
| 2026-05-08 19:41 | 49.61291 | 5.31717 | 33368 ft | 436 kts | 256° |
| 2026-05-08 19:41 | 49.60363 | 5.27292 | 33100 ft | 434 kts | 258° |
| 2026-05-08 19:41 | 49.59642 | 5.22787 | 32836 ft | 433 kts | 264° |
| 2026-05-08 19:41 | 49.59250 | 5.18203 | 32575 ft | 431 kts | 270° |
| 2026-05-08 19:42 | 49.59179 | 5.13599 | 32312 ft | 429 kts | 275° |
| 2026-05-08 19:42 | 49.59239 | 5.08998 | 32055 ft | 430 kts | 275° |
| 2026-05-08 19:42 | 49.59285 | 5.04380 | 31800 ft | 431 kts | 274° |
| 2026-05-08 19:42 | 49.59322 | 4.99758 | 31547 ft | 432 kts | 274° |
| 2026-05-08 19:43 | 49.59357 | 4.95116 | 31299 ft | 434 kts | 274° |
| 2026-05-08 19:43 | 49.59357 | 4.90471 | 31074 ft | 434 kts | 271° |
| 2026-05-08 19:43 | 49.58950 | 4.85850 | 30658 ft | 437 kts | 265° |
| 2026-05-08 19:43 | 49.58417 | 4.81207 | 29682 ft | 444 kts | 265° |
| 2026-05-08 19:44 | 49.57867 | 4.76503 | 28817 ft | 445 kts | 264° |
| 2026-05-08 19:44 | 49.57320 | 4.71857 | 28189 ft | 439 kts | 264° |
| 2026-05-08 19:44 | 49.56779 | 4.67241 | 27464 ft | 437 kts | 264° |
| 2026-05-08 19:44 | 49.56245 | 4.62655 | 26791 ft | 434 kts | 263° |
| 2026-05-08 19:45 | 49.55717 | 4.58115 | 26346 ft | 428 kts | 263° |
| 2026-05-08 19:45 | 49.55191 | 4.53607 | 26088 ft | 429 kts | 263° |
| 2026-05-08 19:45 | 49.54661 | 4.49069 | 25839 ft | 431 kts | 263° |
| 2026-05-08 19:45 | 49.54128 | 4.44537 | 25573 ft | 428 kts | 263° |
| 2026-05-08 19:46 | 49.53597 | 4.40046 | 25104 ft | 425 kts | 263° |
| 2026-05-08 19:46 | 49.53069 | 4.35584 | 24505 ft | 423 kts | 262° |
| 2026-05-08 19:46 | 49.52016 | 4.26738 | 23557 ft | 412 kts | 262° |
| 2026-05-08 19:47 | 49.51505 | 4.22480 | 23378 ft | 397 kts | 262° |
| 2026-05-08 19:47 | 49.51007 | 4.18350 | 22955 ft | 390 kts | 261° |
| 2026-05-08 19:47 | 49.50522 | 4.14324 | 22399 ft | 387 kts | 261° |
| 2026-05-08 19:47 | 49.50027 | 4.10216 | 21851 ft | 383 kts | 261° |
| 2026-05-08 19:48 | 49.49705 | 4.07555 | 21495 ft | 381 kts | 261° |
| 2026-05-08 19:48 | 49.49222 | 4.03569 | 20976 ft | 378 kts | 261° |
| 2026-05-08 19:48 | 49.48585 | 3.98338 | 20298 ft | 374 kts | 260° |
| 2026-05-08 19:48 | 49.48107 | 3.94427 | 19805 ft | 370 kts | 260° |
| 2026-05-08 19:49 | 49.47632 | 3.90553 | 19318 ft | 367 kts | 260° |
| 2026-05-08 19:49 | 49.47313 | 3.87959 | 19018 ft | 364 kts | 259° |
| 2026-05-08 19:49 | 49.46844 | 3.84148 | 18537 ft | 362 kts | 259° |
| 2026-05-08 19:49 | 49.46377 | 3.80363 | 18029 ft | 359 kts | 259° |
| 2026-05-08 19:50 | 49.45910 | 3.76607 | 17538 ft | 355 kts | 259° |
| 2026-05-08 19:50 | 49.45448 | 3.72902 | 17042 ft | 351 kts | 259° |
| 2026-05-08 19:50 | 49.44990 | 3.69230 | 16547 ft | 349 kts | 259° |
| 2026-05-08 19:50 | 49.44537 | 3.65609 | 16032 ft | 346 kts | 259° |
| 2026-05-08 19:51 | 49.44080 | 3.61964 | 15552 ft | 344 kts | 259° |
| 2026-05-08 19:51 | 49.43629 | 3.58379 | 15192 ft | 338 kts | 258° |
| 2026-05-08 19:51 | 49.43181 | 3.54832 | 15092 ft | 341 kts | 258° |
| 2026-05-08 19:51 | 49.42727 | 3.51242 | 15073 ft | 343 kts | 258° |
| 2026-05-08 19:52 | 49.42268 | 3.47657 | 15074 ft | 342 kts | 257° |
| 2026-05-08 19:52 | 49.41592 | 3.44160 | 15076 ft | 342 kts | 249° |
| 2026-05-08 19:52 | 49.40627 | 3.40827 | 15074 ft | 342 kts | 246° |
| 2026-05-08 19:52 | 49.39776 | 3.37418 | 15077 ft | 342 kts | 251° |
| 2026-05-08 19:53 | 49.39015 | 3.33963 | 15073 ft | 342 kts | 251° |
| 2026-05-08 19:53 | 49.38254 | 3.30502 | 15073 ft | 342 kts | 251° |
| 2026-05-08 19:53 | 49.37494 | 3.27044 | 15072 ft | 342 kts | 251° |
| 2026-05-08 19:53 | 49.36734 | 3.23588 | 15072 ft | 342 kts | 251° |
| 2026-05-08 19:54 | 49.35853 | 3.20207 | 15072 ft | 342 kts | 243° |
| 2026-05-08 19:54 | 49.34650 | 3.17067 | 15073 ft | 342 kts | 235° |
| 2026-05-08 19:54 | 49.33205 | 3.14176 | 15072 ft | 341 kts | 231° |
| 2026-05-08 19:54 | 49.31594 | 3.11508 | 15071 ft | 342 kts | 223° |
| 2026-05-08 19:55 | 49.29733 | 3.09251 | 15072 ft | 341 kts | 214° |
| 2026-05-08 19:55 | 49.27938 | 3.06901 | 15075 ft | 341 kts | 231° |
| 2026-05-08 19:55 | 49.26814 | 3.03723 | 15075 ft | 342 kts | 252° |
| 2026-05-08 19:55 | 49.26199 | 3.00202 | 15048 ft | 341 kts | 257° |
| 2026-05-08 19:56 | 49.25680 | 2.96682 | 14907 ft | 337 kts | 257° |
| 2026-05-08 19:56 | 49.25169 | 2.93195 | 14515 ft | 335 kts | 257° |
| 2026-05-08 19:56 | 49.24668 | 2.89769 | 14072 ft | 333 kts | 257° |
| 2026-05-08 19:56 | 49.24166 | 2.86318 | 13531 ft | 332 kts | 257° |
| 2026-05-08 19:57 | 49.23662 | 2.82857 | 12876 ft | 334 kts | 257° |
| 2026-05-08 19:57 | 49.23154 | 2.79375 | 12251 ft | 335 kts | 257° |
| 2026-05-08 19:57 | 49.22650 | 2.75909 | 11733 ft | 333 kts | 257° |
| 2026-05-08 19:57 | 49.22152 | 2.72495 | 11494 ft | 322 kts | 257° |
| 2026-05-08 19:58 | 49.21672 | 2.69193 | 11197 ft | 314 kts | 257° |
| 2026-05-08 19:58 | 49.21197 | 2.65938 | 11091 ft | 316 kts | 257° |
| 2026-05-08 19:58 | 49.20706 | 2.62635 | 11071 ft | 321 kts | 257° |
| 2026-05-08 19:58 | 49.20206 | 2.59320 | 11069 ft | 319 kts | 257° |
| 2026-05-08 19:59 | 49.19711 | 2.56049 | 11020 ft | 312 kts | 257° |
| 2026-05-08 19:59 | 49.19229 | 2.52869 | 10930 ft | 301 kts | 257° |
| 2026-05-08 19:59 | 49.18765 | 2.49812 | 10823 ft | 289 kts | 257° |
| 2026-05-08 19:59 | 49.18316 | 2.46864 | 10580 ft | 282 kts | 257° |
| 2026-05-08 20:00 | 49.17872 | 2.43955 | 10187 ft | 280 kts | 257° |
| 2026-05-08 20:00 | 49.17493 | 2.41026 | 9790 ft | 279 kts | 261° |
| 2026-05-08 20:00 | 49.17219 | 2.38102 | 9380 ft | 277 kts | 262° |
| 2026-05-08 20:00 | 49.16956 | 2.35194 | 8941 ft | 277 kts | 262° |
| 2026-05-08 20:01 | 49.16698 | 2.32289 | 8556 ft | 274 kts | 262° |
| 2026-05-08 20:01 | 49.16443 | 2.29393 | 8076 ft | 276 kts | 262° |
| 2026-05-08 20:01 | 49.16187 | 2.26490 | 7674 ft | 275 kts | 261° |
| 2026-05-08 20:01 | 49.15943 | 2.23609 | 7321 ft | 272 kts | 262° |
| 2026-05-08 20:02 | 49.15701 | 2.20728 | 6877 ft | 274 kts | 262° |
| 2026-05-08 20:02 | 49.15468 | 2.17862 | 6534 ft | 271 kts | 262° |
| 2026-05-08 20:02 | 49.15237 | 2.15001 | 6157 ft | 269 kts | 262° |
| 2026-05-08 20:02 | 49.15005 | 2.12150 | 6030 ft | 273 kts | 261° |
| 2026-05-08 20:03 | 49.14774 | 2.09285 | 5886 ft | 271 kts | 262° |
| 2026-05-08 20:03 | 49.14537 | 2.06430 | 5530 ft | 271 kts | 262° |
| 2026-05-08 20:03 | 49.14296 | 2.03580 | 5132 ft | 271 kts | 261° |
| 2026-05-08 20:03 | 49.14058 | 2.00709 | 4710 ft | 272 kts | 262° |
| 2026-05-08 20:04 | 49.13819 | 1.97889 | 4335 ft | 271 kts | 262° |
| 2026-05-08 20:04 | 49.13573 | 1.95044 | 4042 ft | 268 kts | 262° |
| 2026-05-08 20:04 | 49.13321 | 1.92195 | 3975 ft | 273 kts | 262° |
| 2026-05-08 20:04 | 49.13058 | 1.89340 | 3973 ft | 272 kts | 262° |
| 2026-05-08 20:05 | 49.12801 | 1.86479 | 3991 ft | 271 kts | 262° |
| 2026-05-08 20:05 | 49.12546 | 1.83633 | 3992 ft | 271 kts | 262° |
| 2026-05-08 20:05 | 49.12291 | 1.80771 | 3991 ft | 273 kts | 262° |
| 2026-05-08 20:05 | 49.12034 | 1.77904 | 3989 ft | 272 kts | 261° |
| 2026-05-08 20:06 | 49.11471 | 1.75189 | 3992 ft | 270 kts | 237° |
| 2026-05-08 20:06 | 49.10174 | 1.73177 | 3990 ft | 267 kts | 209° |
| 2026-05-08 20:06 | 49.08425 | 1.72334 | 3990 ft | 264 kts | 180° |
| 2026-05-08 20:06 | 49.06650 | 1.72848 | 3996 ft | 261 kts | 152° |
| 2026-05-08 20:07 | 49.05272 | 1.74577 | 3992 ft | 258 kts | 124° |
| 2026-05-08 20:07 | 49.04597 | 1.77084 | 3993 ft | 257 kts | 102° |
| 2026-05-08 20:07 | 49.04220 | 1.79749 | 3991 ft | 257 kts | 101° |
| 2026-05-08 20:07 | 49.03846 | 1.82411 | 3990 ft | 257 kts | 102° |
| 2026-05-08 20:08 | 49.03476 | 1.85061 | 3991 ft | 257 kts | 101° |
| 2026-05-08 20:08 | 49.03105 | 1.87725 | 3997 ft | 257 kts | 101° |
| 2026-05-08 20:08 | 49.02735 | 1.90390 | 3997 ft | 257 kts | 101° |
| 2026-05-08 20:08 | 49.02364 | 1.93057 | 3998 ft | 257 kts | 100° |
| 2026-05-08 20:09 | 49.02213 | 1.95761 | 3998 ft | 257 kts | 91° |
| 2026-05-08 20:09 | 49.02191 | 1.98480 | 3998 ft | 257 kts | 90° |
| 2026-05-08 20:09 | 49.02164 | 2.01206 | 3998 ft | 258 kts | 91° |
| 2026-05-08 20:09 | 49.02114 | 2.03934 | 4001 ft | 258 kts | 91° |
| 2026-05-08 20:10 | 49.02058 | 2.06657 | 4001 ft | 257 kts | 92° |
| 2026-05-08 20:10 | 49.01928 | 2.09375 | 3998 ft | 257 kts | 95° |
| 2026-05-08 20:10 | 49.01779 | 2.12092 | 3998 ft | 258 kts | 95° |
| 2026-05-08 20:10 | 49.01642 | 2.14812 | 3998 ft | 257 kts | 94° |
| 2026-05-08 20:11 | 49.01523 | 2.17530 | 3998 ft | 257 kts | 94° |
| 2026-05-08 20:11 | 49.01448 | 2.20251 | 3994 ft | 257 kts | 92° |
| 2026-05-08 20:11 | 49.01395 | 2.22982 | 3995 ft | 258 kts | 91° |
| 2026-05-08 20:11 | 49.01325 | 2.25717 | 3884 ft | 260 kts | 93° |
| 2026-05-08 20:12 | 49.01285 | 2.28478 | 3517 ft | 261 kts | 89° |
| 2026-05-08 20:12 | 49.01360 | 2.31228 | 3160 ft | 259 kts | 86° |
| 2026-05-08 20:12 | 49.01498 | 2.33954 | 2808 ft | 257 kts | 85° |
| 2026-05-08 20:12 | 49.01638 | 2.36654 | 2461 ft | 254 kts | 85° |
| 2026-05-08 20:13 | 49.01779 | 2.39320 | 2124 ft | 251 kts | 85° |
| 2026-05-08 20:13 | 49.01917 | 2.41933 | 1775 ft | 243 kts | 85° |
| 2026-05-08 20:13 | 49.02048 | 2.44413 | 1460 ft | 223 kts | 85° |
| 2026-05-08 20:13 | 49.02165 | 2.46638 | 1167 ft | 200 kts | 84° |
| 2026-05-08 20:14 | 49.02270 | 2.48631 | 942 ft | 179 kts | 84° |
| 2026-05-08 20:14 | 49.02359 | 2.50415 | 683 ft | 157 kts | 85° |
| 2026-05-08 20:14 | 49.02438 | 2.51959 | 469 ft | 139 kts | 81° |
| 2026-05-08 20:14 | 49.02532 | 2.53347 | 356 ft | 120 kts | 83° |
| 2026-05-08 20:15 | 49.02570 | 2.54138 | 356 ft | 46 kts | 88° |
| 2026-05-08 20:15 | 49.02557 | 2.54489 | 351 ft | 28 kts | 102° |
| 2026-05-08 20:15 | 49.02508 | 2.54757 | 356 ft | 22 kts | 110° |
| 2026-05-08 20:15 | 49.02467 | 2.54988 | 359 ft | 23 kts | 110° |
| 2026-05-08 20:16 | 49.02447 | 2.55227 | 356 ft | 23 kts | 81° |
| 2026-05-08 20:16 | 49.02459 | 2.55445 | 354 ft | 19 kts | 86° |
| 2026-05-08 20:16 | 49.02435 | 2.55600 | 358 ft | 13 kts | 139° |
| 2026-05-08 20:16 | 49.02395 | 2.55617 | 357 ft | 0 kts | 176° |
| 2026-05-08 20:18 | 49.02385 | 2.55617 | 356 ft | 3 kts | 176° |
| 2026-05-08 20:19 | 49.02350 | 2.55620 | 355 ft | 7 kts | 176° |
| 2026-05-08 20:19 | 49.02288 | 2.55626 | 356 ft | 12 kts | 176° |
| 2026-05-08 20:19 | 49.02194 | 2.55639 | 362 ft | 7 kts | 175° |
| 2026-05-08 20:19 | 49.02129 | 2.55645 | 357 ft | 11 kts | 188° |
| 2026-05-08 20:20 | 49.02068 | 2.55582 | 359 ft | 11 kts | 257° |
| 2026-05-08 20:20 | 49.02060 | 2.55448 | 354 ft | 14 kts | 271° |
| 2026-05-08 20:20 | 49.02052 | 2.55288 | 354 ft | 16 kts | 264° |
| 2026-05-08 20:20 | 49.02043 | 2.55103 | 360 ft | 19 kts | 266° |
| 2026-05-08 20:21 | 49.02032 | 2.54894 | 362 ft | 21 kts | 265° |
| 2026-05-08 20:21 | 49.02020 | 2.54664 | 354 ft | 22 kts | 265° |
| 2026-05-08 20:21 | 49.02008 | 2.54463 | 358 ft | 16 kts | 265° |
| 2026-05-08 20:21 | 49.02000 | 2.54287 | 360 ft | 14 kts | 263° |
| 2026-05-08 20:22 | 49.01958 | 2.54156 | 354 ft | 13 kts | 216° |
| 2026-05-08 20:22 | 49.01907 | 2.54126 | 356 ft | 0 kts | 186° |
| 2026-05-08 20:22 | 49.01898 | 2.54127 | 354 ft | 7 kts | 177° |
| 2026-05-08 20:22 | 49.01847 | 2.54130 | 359 ft | 13 kts | 186° |
| 2026-05-08 20:23 | 49.01758 | 2.54019 | 354 ft | 12 kts | 210° |
| 2026-05-08 20:23 | 49.01746 | 2.53996 | 355 ft | 0 kts | 234° |
| 2026-05-08 20:23 | 49.01743 | 2.53991 | 356 ft | 7 kts | 233° |
| 2026-05-08 20:23 | 49.01744 | 2.53992 | 354 ft | 4 kts | 233° |
| 2026-05-08 20:24 | 49.01765 | 2.54049 | 359 ft | 8 kts | 256° |
| 2026-05-08 20:24 | 49.01786 | 2.54132 | 358 ft | 8 kts | 235° |
| 2026-05-08 20:24 | 49.01788 | 2.54140 | 358 ft | 1 kts | 219° |
| 2026-05-08 20:24 | 49.01753 | 2.54121 | 356 ft | 9 kts | 202° |
| 2026-05-08 20:25 | 49.01724 | 2.54100 | 362 ft | 0 kts | 208° |
| 2026-05-08 20:25 | 49.01719 | 2.54095 | 361 ft | 0 kts | 208° |